Lesage, West Virginia
Current Conditions -  °F | °C
As of 7:51 AM on Thursday 30 Oct 2014 (Local Time) from KHTS Reporting Station
Haze Haze  
Wind Chill:   Ceiling: 4400
Heat Index:   Visibility: 6mi
Dew Point:   Wind: 0mph
Humidity: 96%   Direction: NA
Pressure: 30.14"   Gusts: NA
Location:  38.51°N, 82.3°W
Report Text: KHTS 301151Z 00000KT 6SM BR OVC044 03/02 A3014 RMK AO2 SLP208 T00280022 10056 20022 53008
Loading
Personal Weather Stations






























Interactive Weather Map
Tropical Storm Tracking
New forecast layout! Learn more

10-Day Weather Forecast

Advertisements
Track Severe Weather on mobile